Terminal Aerodrome Forecast
Issued by NWS

Home | Current Version | Previous Version | Text Only | Print | Product List | Glossary On
Versions: 1 2 3 4 5 6 7 8 9 10 11 12 13 14 15 16 17 18 19 20 21 22
274
FTUS43 KDLH 231739
TAFBRD
TAF
KBRD 231739Z 2318/2418 30014G23KT P6SM VCSH SCT030 BKN045
      TEMPO 2318/2320 -SHRA BKN030
     FM240000 31010KT P6SM BKN050
     FM240300 30010KT P6SM SCT050
     FM241400 29009KT P6SM VCSH BKN050=

USA.gov is the U.S. government's official web portal to all federal, state and local government web resources and services.